sensor_id;sensor_type;location;lat;lon;timestamp;P1;durP1;ratioP1;P2;durP2;ratioP2
46561;SDS011;32289;42.688;23.330;2022-11-20T00:02:22;3.17;;;1.75;;
46561;SDS011;32289;42.688;23.330;2022-11-20T00:06:03;3.83;;;1.85;;
46561;SDS011;32289;42.688;23.330;2022-11-20T00:09:46;3.25;;;1.33;;
46561;SDS011;32289;42.688;23.330;2022-11-20T00:13:26;8.02;;;1.42;;
46561;SDS011;32289;42.688;23.330;2022-11-20T00:17:07;3.85;;;1.35;;
46561;SDS011;32289;42.688;23.330;2022-11-20T00:20:48;2.58;;;1.42;;
46561;SDS011;32289;42.688;23.330;2022-11-20T00:24:28;1.63;;;0.98;;
46561;SDS011;32289;42.688;23.330;2022-11-20T00:28:09;1.45;;;0.90;;
46561;SDS011;32289;42.688;23.330;2022-11-20T00:31:50;3.50;;;1.17;;
46561;SDS011;32289;42.688;23.330;2022-11-20T00:35:30;2.13;;;0.90;;
46561;SDS011;32289;42.688;23.330;2022-11-20T00:39:11;2.72;;;0.90;;
46561;SDS011;32289;42.688;23.330;2022-11-20T00:42:51;1.27;;;0.68;;
46561;SDS011;32289;42.688;23.330;2022-11-20T00:46:32;2.28;;;0.75;;
46561;SDS011;32289;42.688;23.330;2022-11-20T00:50:14;3.53;;;0.75;;
46561;SDS011;32289;42.688;23.330;2022-11-20T00:53:55;1.33;;;0.60;;
46561;SDS011;32289;42.688;23.330;2022-11-20T00:57:37;1.02;;;0.45;;
46561;SDS011;32289;42.688;23.330;2022-11-20T01:01:18;0.80;;;0.50;;
46561;SDS011;32289;42.688;23.330;2022-11-20T01:05:06;0.50;;;0.38;;
46561;SDS011;32289;42.688;23.330;2022-11-20T01:08:47;1.05;;;0.50;;
46561;SDS011;32289;42.688;23.330;2022-11-20T01:12:29;0.80;;;0.47;;
46561;SDS011;32289;42.688;23.330;2022-11-20T01:19:50;0.98;;;0.50;;
46561;SDS011;32289;42.688;23.330;2022-11-20T01:23:35;2.88;;;0.65;;
46561;SDS011;32289;42.688;23.330;2022-11-20T01:27:17;0.57;;;0.30;;
46561;SDS011;32289;42.688;23.330;2022-11-20T01:30:57;6.82;;;0.70;;
46561;SDS011;32289;42.688;23.330;2022-11-20T01:34:39;0.77;;;0.43;;
46561;SDS011;32289;42.688;23.330;2022-11-20T01:38:19;1.08;;;0.40;;
46561;SDS011;32289;42.688;23.330;2022-11-20T01:42:00;1.83;;;0.77;;
46561;SDS011;32289;42.688;23.330;2022-11-20T01:54:02;1.23;;;0.60;;
46561;SDS011;32289;42.688;23.330;2022-11-20T01:57:46;1.17;;;0.60;;
46561;SDS011;32289;42.688;23.330;2022-11-20T02:01:28;1.00;;;0.80;;
46561;SDS011;32289;42.688;23.330;2022-11-20T02:09:32;2.58;;;0.85;;
46561;SDS011;32289;42.688;23.330;2022-11-20T02:13:13;1.05;;;0.50;;
46561;SDS011;32289;42.688;23.330;2022-11-20T02:17:12;3.67;;;0.75;;
46561;SDS011;32289;42.688;23.330;2022-11-20T02:20:53;1.65;;;0.40;;
46561;SDS011;32289;42.688;23.330;2022-11-20T02:24:40;1.58;;;0.65;;
46561;SDS011;32289;42.688;23.330;2022-11-20T02:28:23;0.98;;;0.50;;
46561;SDS011;32289;42.688;23.330;2022-11-20T02:32:04;4.60;;;0.70;;
46561;SDS011;32289;42.688;23.330;2022-11-20T02:35:45;3.22;;;0.40;;
46561;SDS011;32289;42.688;23.330;2022-11-20T02:39:26;0.88;;;0.50;;
46561;SDS011;32289;42.688;23.330;2022-11-20T02:43:08;2.33;;;0.43;;
46561;SDS011;32289;42.688;23.330;2022-11-20T02:46:49;1.65;;;0.82;;
46561;SDS011;32289;42.688;23.330;2022-11-20T02:50:30;1.05;;;0.50;;
46561;SDS011;32289;42.688;23.330;2022-11-20T02:54:11;0.82;;;0.52;;
46561;SDS011;32289;42.688;23.330;2022-11-20T02:57:51;0.57;;;0.40;;
46561;SDS011;32289;42.688;23.330;2022-11-20T03:01:32;1.05;;;0.60;;
46561;SDS011;32289;42.688;23.330;2022-11-20T03:05:13;6.22;;;0.60;;
46561;SDS011;32289;42.688;23.330;2022-11-20T03:08:54;0.75;;;0.40;;
46561;SDS011;32289;42.688;23.330;2022-11-20T03:12:34;2.00;;;0.50;;
46561;SDS011;32289;42.688;23.330;2022-11-20T03:16:16;1.42;;;0.40;;
46561;SDS011;32289;42.688;23.330;2022-11-20T03:20:02;1.65;;;0.52;;
46561;SDS011;32289;42.688;23.330;2022-11-20T03:23:43;0.77;;;0.50;;
46561;SDS011;32289;42.688;23.330;2022-11-20T03:27:24;1.15;;;0.68;;
46561;SDS011;32289;42.688;23.330;2022-11-20T03:31:09;0.95;;;0.70;;
46561;SDS011;32289;42.688;23.330;2022-11-20T03:34:53;1.40;;;0.45;;
46561;SDS011;32289;42.688;23.330;2022-11-20T03:38:34;2.47;;;0.50;;
46561;SDS011;32289;42.688;23.330;2022-11-20T03:42:15;0.80;;;0.80;;
46561;SDS011;32289;42.688;23.330;2022-11-20T03:46:14;0.65;;;0.50;;
46561;SDS011;32289;42.688;23.330;2022-11-20T03:49:55;0.88;;;0.50;;
46561;SDS011;32289;42.688;23.330;2022-11-20T03:53:36;9.20;;;0.80;;
46561;SDS011;32289;42.688;23.330;2022-11-20T03:57:16;0.77;;;0.52;;
46561;SDS011;32289;42.688;23.330;2022-11-20T04:00:57;2.60;;;0.98;;
46561;SDS011;32289;42.688;23.330;2022-11-20T04:04:38;1.92;;;0.70;;
46561;SDS011;32289;42.688;23.330;2022-11-20T04:08:18;2.97;;;0.70;;
46561;SDS011;32289;42.688;23.330;2022-11-20T04:11:59;2.42;;;0.70;;
46561;SDS011;32289;42.688;23.330;2022-11-20T04:15:40;1.33;;;0.63;;
46561;SDS011;32289;42.688;23.330;2022-11-20T04:19:20;1.45;;;0.55;;
46561;SDS011;32289;42.688;23.330;2022-11-20T04:23:01;1.95;;;0.60;;
46561;SDS011;32289;42.688;23.330;2022-11-20T04:26:41;1.23;;;0.70;;
46561;SDS011;32289;42.688;23.330;2022-11-20T04:30:22;2.83;;;0.30;;
46561;SDS011;32289;42.688;23.330;2022-11-20T04:34:04;1.38;;;0.43;;
46561;SDS011;32289;42.688;23.330;2022-11-20T04:37:45;2.42;;;0.70;;
46561;SDS011;32289;42.688;23.330;2022-11-20T04:41:27;1.83;;;0.55;;
46561;SDS011;32289;42.688;23.330;2022-11-20T04:45:09;1.00;;;0.38;;
46561;SDS011;32289;42.688;23.330;2022-11-20T04:48:50;2.30;;;0.60;;
46561;SDS011;32289;42.688;23.330;2022-11-20T04:52:31;0.52;;;0.35;;
46561;SDS011;32289;42.688;23.330;2022-11-20T04:56:12;0.70;;;0.43;;
46561;SDS011;32289;42.688;23.330;2022-11-20T04:59:53;1.05;;;0.60;;
46561;SDS011;32289;42.688;23.330;2022-11-20T05:03:33;1.35;;;0.60;;
46561;SDS011;32289;42.688;23.330;2022-11-20T05:07:14;1.15;;;0.40;;
46561;SDS011;32289;42.688;23.330;2022-11-20T05:11:05;1.90;;;0.57;;
46561;SDS011;32289;42.688;23.330;2022-11-20T05:14:47;2.03;;;0.45;;
46561;SDS011;32289;42.688;23.330;2022-11-20T05:18:28;0.30;;;0.30;;
46561;SDS011;32289;42.688;23.330;2022-11-20T05:22:09;0.17;;;0.17;;
46561;SDS011;32289;42.688;23.330;2022-11-20T05:25:53;2.67;;;0.73;;
46561;SDS011;32289;42.688;23.330;2022-11-20T05:29:35;0.43;;;0.35;;
46561;SDS011;32289;42.688;23.330;2022-11-20T05:33:16;0.60;;;0.30;;
46561;SDS011;32289;42.688;23.330;2022-11-20T05:36:57;0.47;;;0.30;;
46561;SDS011;32289;42.688;23.330;2022-11-20T05:40:38;0.75;;;0.50;;
46561;SDS011;32289;42.688;23.330;2022-11-20T05:44:18;2.65;;;0.50;;
46561;SDS011;32289;42.688;23.330;2022-11-20T05:47:59;0.73;;;0.40;;
46561;SDS011;32289;42.688;23.330;2022-11-20T05:51:40;1.08;;;0.47;;
46561;SDS011;32289;42.688;23.330;2022-11-20T05:55:21;0.63;;;0.40;;
46561;SDS011;32289;42.688;23.330;2022-11-20T05:59:02;1.38;;;0.60;;
46561;SDS011;32289;42.688;23.330;2022-11-20T06:02:42;2.50;;;0.70;;
46561;SDS011;32289;42.688;23.330;2022-11-20T06:06:23;0.30;;;0.25;;
46561;SDS011;32289;42.688;23.330;2022-11-20T06:10:05;4.35;;;0.60;;
46561;SDS011;32289;42.688;23.330;2022-11-20T06:13:47;1.25;;;0.30;;
46561;SDS011;32289;42.688;23.330;2022-11-20T06:17:28;3.25;;;0.70;;
46561;SDS011;32289;42.688;23.330;2022-11-20T06:21:09;4.13;;;1.00;;
46561;SDS011;32289;42.688;23.330;2022-11-20T06:24:52;2.38;;;0.80;;
46561;SDS011;32289;42.688;23.330;2022-11-20T06:28:33;4.50;;;0.50;;
46561;SDS011;32289;42.688;23.330;2022-11-20T06:32:14;1.75;;;0.50;;
46561;SDS011;32289;42.688;23.330;2022-11-20T06:35:58;1.70;;;0.63;;
46561;SDS011;32289;42.688;23.330;2022-11-20T06:39:40;2.70;;;1.20;;
46561;SDS011;32289;42.688;23.330;2022-11-20T06:43:21;1.75;;;0.65;;
46561;SDS011;32289;42.688;23.330;2022-11-20T06:47:02;3.30;;;0.50;;
46561;SDS011;32289;42.688;23.330;2022-11-20T06:50:43;2.08;;;0.68;;
46561;SDS011;32289;42.688;23.330;2022-11-20T06:54:24;2.22;;;0.57;;
46561;SDS011;32289;42.688;23.330;2022-11-20T06:58:04;2.45;;;0.63;;
46561;SDS011;32289;42.688;23.330;2022-11-20T07:01:45;2.15;;;1.13;;
46561;SDS011;32289;42.688;23.330;2022-11-20T07:05:26;1.00;;;0.52;;
46561;SDS011;32289;42.688;23.330;2022-11-20T07:09:06;1.25;;;0.50;;
46561;SDS011;32289;42.688;23.330;2022-11-20T07:12:51;0.57;;;0.40;;
46561;SDS011;32289;42.688;23.330;2022-11-20T07:16:32;3.67;;;0.80;;
46561;SDS011;32289;42.688;23.330;2022-11-20T07:20:13;2.40;;;0.85;;
46561;SDS011;32289;42.688;23.330;2022-11-20T07:23:55;1.05;;;0.47;;
46561;SDS011;32289;42.688;23.330;2022-11-20T07:27:35;1.65;;;0.75;;
46561;SDS011;32289;42.688;23.330;2022-11-20T07:31:16;2.38;;;1.00;;
46561;SDS011;32289;42.688;23.330;2022-11-20T07:34:57;3.50;;;1.58;;
46561;SDS011;32289;42.688;23.330;2022-11-20T07:38:37;2.08;;;0.88;;
46561;SDS011;32289;42.688;23.330;2022-11-20T07:42:18;3.22;;;1.20;;
46561;SDS011;32289;42.688;23.330;2022-11-20T07:45:59;3.20;;;0.85;;
46561;SDS011;32289;42.688;23.330;2022-11-20T07:49:39;4.88;;;1.88;;
46561;SDS011;32289;42.688;23.330;2022-11-20T07:53:20;1.88;;;0.90;;
46561;SDS011;32289;42.688;23.330;2022-11-20T07:57:01;5.43;;;2.10;;
46561;SDS011;32289;42.688;23.330;2022-11-20T08:00:42;3.63;;;1.58;;
46561;SDS011;32289;42.688;23.330;2022-11-20T08:04:23;4.25;;;1.58;;
46561;SDS011;32289;42.688;23.330;2022-11-20T08:08:03;2.40;;;0.80;;
46561;SDS011;32289;42.688;23.330;2022-11-20T08:11:44;3.42;;;0.85;;
46561;SDS011;32289;42.688;23.330;2022-11-20T08:15:47;3.92;;;0.60;;
46561;SDS011;32289;42.688;23.330;2022-11-20T08:19:30;7.43;;;3.20;;
46561;SDS011;32289;42.688;23.330;2022-11-20T08:23:10;3.83;;;1.77;;
46561;SDS011;32289;42.688;23.330;2022-11-20T08:26:51;11.00;;;1.75;;
46561;SDS011;32289;42.688;23.330;2022-11-20T08:30:32;10.05;;;2.13;;
46561;SDS011;32289;42.688;23.330;2022-11-20T08:34:14;8.40;;;1.45;;
46561;SDS011;32289;42.688;23.330;2022-11-20T08:37:54;5.25;;;1.70;;
46561;SDS011;32289;42.688;23.330;2022-11-20T08:41:35;3.70;;;1.50;;
46561;SDS011;32289;42.688;23.330;2022-11-20T08:45:17;2.83;;;1.38;;
46561;SDS011;32289;42.688;23.330;2022-11-20T08:48:59;7.28;;;0.93;;
46561;SDS011;32289;42.688;23.330;2022-11-20T08:52:40;2.33;;;1.05;;
46561;SDS011;32289;42.688;23.330;2022-11-20T08:56:21;3.63;;;1.58;;
46561;SDS011;32289;42.688;23.330;2022-11-20T09:00:03;13.63;;;2.08;;
46561;SDS011;32289;42.688;23.330;2022-11-20T09:03:45;3.35;;;1.38;;
46561;SDS011;32289;42.688;23.330;2022-11-20T09:07:26;6.75;;;1.75;;
46561;SDS011;32289;42.688;23.330;2022-11-20T09:11:06;6.22;;;1.90;;
46561;SDS011;32289;42.688;23.330;2022-11-20T09:14:48;9.25;;;2.58;;
46561;SDS011;32289;42.688;23.330;2022-11-20T09:18:29;11.10;;;4.20;;
46561;SDS011;32289;42.688;23.330;2022-11-20T09:22:11;15.13;;;6.10;;
46561;SDS011;32289;42.688;23.330;2022-11-20T09:25:52;5.07;;;2.13;;
46561;SDS011;32289;42.688;23.330;2022-11-20T09:29:35;10.45;;;5.13;;
46561;SDS011;32289;42.688;23.330;2022-11-20T09:33:15;1.98;;;1.25;;
46561;SDS011;32289;42.688;23.330;2022-11-20T09:36:56;1.52;;;0.70;;
46561;SDS011;32289;42.688;23.330;2022-11-20T09:40:38;1.90;;;0.98;;
46561;SDS011;32289;42.688;23.330;2022-11-20T09:52:26;3.07;;;0.80;;
46561;SDS011;32289;42.688;23.330;2022-11-20T09:56:16;1.13;;;0.63;;
46561;SDS011;32289;42.688;23.330;2022-11-20T09:59:59;4.85;;;1.20;;
46561;SDS011;32289;42.688;23.330;2022-11-20T10:07:51;7.45;;;1.95;;
46561;SDS011;32289;42.688;23.330;2022-11-20T10:20:00;5.22;;;1.10;;
46561;SDS011;32289;42.688;23.330;2022-11-20T10:23:51;2.97;;;1.50;;
46561;SDS011;32289;42.688;23.330;2022-11-20T10:27:46;7.25;;;1.98;;
46561;SDS011;32289;42.688;23.330;2022-11-20T10:31:33;7.60;;;2.78;;
46561;SDS011;32289;42.688;23.330;2022-11-20T10:35:27;9.15;;;2.90;;
46561;SDS011;32289;42.688;23.330;2022-11-20T10:43:32;7.07;;;2.80;;
46561;SDS011;32289;42.688;23.330;2022-11-20T10:47:14;6.43;;;2.45;;
46561;SDS011;32289;42.688;23.330;2022-11-20T11:02:34;3.30;;;1.70;;
46561;SDS011;32289;42.688;23.330;2022-11-20T11:06:34;4.93;;;2.67;;
46561;SDS011;32289;42.688;23.330;2022-11-20T11:10:24;2.70;;;1.40;;
46561;SDS011;32289;42.688;23.330;2022-11-20T11:14:15;5.47;;;1.77;;
46561;SDS011;32289;42.688;23.330;2022-11-20T11:17:56;5.05;;;1.83;;
46561;SDS011;32289;42.688;23.330;2022-11-20T11:21:37;5.63;;;1.88;;
46561;SDS011;32289;42.688;23.330;2022-11-20T11:29:16;2.17;;;0.63;;
46561;SDS011;32289;42.688;23.330;2022-11-20T11:37:17;2.53;;;0.68;;
46561;SDS011;32289;42.688;23.330;2022-11-20T11:41:01;2.55;;;1.13;;
46561;SDS011;32289;42.688;23.330;2022-11-20T11:44:44;5.38;;;0.77;;
46561;SDS011;32289;42.688;23.330;2022-11-20T11:48:54;3.95;;;0.85;;
46561;SDS011;32289;42.688;23.330;2022-11-20T11:52:51;6.75;;;3.05;;
46561;SDS011;32289;42.688;23.330;2022-11-20T11:56:38;0.95;;;0.60;;
46561;SDS011;32289;42.688;23.330;2022-11-20T12:00:20;1.67;;;0.55;;
46561;SDS011;32289;42.688;23.330;2022-11-20T12:08:23;7.30;;;1.10;;
46561;SDS011;32289;42.688;23.330;2022-11-20T12:12:30;1.13;;;0.60;;
46561;SDS011;32289;42.688;23.330;2022-11-20T12:16:22;3.63;;;1.30;;
46561;SDS011;32289;42.688;23.330;2022-11-20T12:20:10;3.22;;;1.48;;
46561;SDS011;32289;42.688;23.330;2022-11-20T12:24:06;3.58;;;1.33;;
46561;SDS011;32289;42.688;23.330;2022-11-20T12:39:42;2.53;;;1.00;;
46561;SDS011;32289;42.688;23.330;2022-11-20T12:43:29;3.60;;;0.60;;
46561;SDS011;32289;42.688;23.330;2022-11-20T13:04:00;3.63;;;1.65;;
46561;SDS011;32289;42.688;23.330;2022-11-20T13:08:20;4.75;;;2.47;;
46561;SDS011;32289;42.688;23.330;2022-11-20T13:12:08;4.88;;;1.92;;
46561;SDS011;32289;42.688;23.330;2022-11-20T13:19:35;7.22;;;2.25;;
46561;SDS011;32289;42.688;23.330;2022-11-20T13:23:26;13.25;;;5.93;;
46561;SDS011;32289;42.688;23.330;2022-11-20T13:30:53;18.10;;;2.67;;
46561;SDS011;32289;42.688;23.330;2022-11-20T13:34:36;3.53;;;1.80;;
46561;SDS011;32289;42.688;23.330;2022-11-20T13:38:16;6.53;;;1.70;;
46561;SDS011;32289;42.688;23.330;2022-11-20T13:42:01;4.53;;;2.67;;
46561;SDS011;32289;42.688;23.330;2022-11-20T13:46:04;8.05;;;1.10;;
46561;SDS011;32289;42.688;23.330;2022-11-20T13:49:46;2.97;;;1.30;;
46561;SDS011;32289;42.688;23.330;2022-11-20T14:01:40;4.40;;;1.60;;
46561;SDS011;32289;42.688;23.330;2022-11-20T14:05:25;3.88;;;1.40;;
46561;SDS011;32289;42.688;23.330;2022-11-20T14:09:09;4.95;;;1.50;;
46561;SDS011;32289;42.688;23.330;2022-11-20T14:13:20;6.17;;;2.47;;
46561;SDS011;32289;42.688;23.330;2022-11-20T14:17:34;7.90;;;2.53;;
46561;SDS011;32289;42.688;23.330;2022-11-20T14:21:21;13.05;;;3.10;;
46561;SDS011;32289;42.688;23.330;2022-11-20T14:25:17;11.07;;;5.07;;
46561;SDS011;32289;42.688;23.330;2022-11-20T14:28:58;7.60;;;2.33;;
46561;SDS011;32289;42.688;23.330;2022-11-20T14:32:40;6.80;;;2.22;;
46561;SDS011;32289;42.688;23.330;2022-11-20T14:36:23;5.35;;;2.03;;
46561;SDS011;32289;42.688;23.330;2022-11-20T14:40:20;8.10;;;2.50;;
46561;SDS011;32289;42.688;23.330;2022-11-20T14:44:09;9.43;;;4.15;;
46561;SDS011;32289;42.688;23.330;2022-11-20T14:47:51;6.75;;;2.58;;
46561;SDS011;32289;42.688;23.330;2022-11-20T14:55:25;4.68;;;1.85;;
46561;SDS011;32289;42.688;23.330;2022-11-20T14:59:21;4.55;;;1.73;;
46561;SDS011;32289;42.688;23.330;2022-11-20T15:03:13;5.10;;;1.77;;
46561;SDS011;32289;42.688;23.330;2022-11-20T15:06:56;4.68;;;2.20;;
46561;SDS011;32289;42.688;23.330;2022-11-20T15:10:38;3.53;;;1.58;;
46561;SDS011;32289;42.688;23.330;2022-11-20T15:14:25;10.55;;;1.95;;
46561;SDS011;32289;42.688;23.330;2022-11-20T15:18:14;3.40;;;1.50;;
46561;SDS011;32289;42.688;23.330;2022-11-20T15:21:57;4.90;;;2.25;;
46561;SDS011;32289;42.688;23.330;2022-11-20T15:25:39;7.30;;;2.00;;
46561;SDS011;32289;42.688;23.330;2022-11-20T15:29:20;4.35;;;1.88;;
46561;SDS011;32289;42.688;23.330;2022-11-20T15:33:04;6.68;;;1.50;;
46561;SDS011;32289;42.688;23.330;2022-11-20T15:36:47;2.95;;;1.33;;
46561;SDS011;32289;42.688;23.330;2022-11-20T15:40:28;6.10;;;2.85;;
46561;SDS011;32289;42.688;23.330;2022-11-20T15:44:09;5.07;;;2.55;;
46561;SDS011;32289;42.688;23.330;2022-11-20T15:47:50;5.28;;;2.28;;
46561;SDS011;32289;42.688;23.330;2022-11-20T15:51:31;7.88;;;1.90;;
46561;SDS011;32289;42.688;23.330;2022-11-20T15:55:15;5.72;;;1.30;;
46561;SDS011;32289;42.688;23.330;2022-11-20T15:58:55;3.42;;;0.88;;
46561;SDS011;32289;42.688;23.330;2022-11-20T16:02:36;4.85;;;1.75;;
46561;SDS011;32289;42.688;23.330;2022-11-20T16:06:17;2.60;;;1.20;;
46561;SDS011;32289;42.688;23.330;2022-11-20T16:09:57;3.47;;;1.55;;
46561;SDS011;32289;42.688;23.330;2022-11-20T16:13:38;1.80;;;0.88;;
46561;SDS011;32289;42.688;23.330;2022-11-20T16:17:37;2.90;;;1.25;;
46561;SDS011;32289;42.688;23.330;2022-11-20T16:21:24;3.25;;;1.48;;
46561;SDS011;32289;42.688;23.330;2022-11-20T16:25:11;6.70;;;1.67;;
46561;SDS011;32289;42.688;23.330;2022-11-20T16:28:52;4.25;;;1.60;;
46561;SDS011;32289;42.688;23.330;2022-11-20T16:32:32;4.35;;;1.83;;
46561;SDS011;32289;42.688;23.330;2022-11-20T16:36:14;1.92;;;1.35;;
46561;SDS011;32289;42.688;23.330;2022-11-20T16:39:55;3.08;;;1.45;;
46561;SDS011;32289;42.688;23.330;2022-11-20T16:43:36;6.00;;;1.90;;
46561;SDS011;32289;42.688;23.330;2022-11-20T16:47:17;5.65;;;1.13;;
46561;SDS011;32289;42.688;23.330;2022-11-20T16:50:58;4.28;;;2.22;;
46561;SDS011;32289;42.688;23.330;2022-11-20T16:54:39;5.38;;;2.55;;
46561;SDS011;32289;42.688;23.330;2022-11-20T16:58:20;8.57;;;1.10;;
46561;SDS011;32289;42.688;23.330;2022-11-20T17:02:01;11.00;;;4.32;;
46561;SDS011;32289;42.688;23.330;2022-11-20T17:05:41;3.42;;;1.23;;
46561;SDS011;32289;42.688;23.330;2022-11-20T17:09:22;5.60;;;2.85;;
46561;SDS011;32289;42.688;23.330;2022-11-20T17:13:03;2.95;;;1.08;;
46561;SDS011;32289;42.688;23.330;2022-11-20T17:16:44;5.30;;;2.70;;
46561;SDS011;32289;42.688;23.330;2022-11-20T17:20:24;4.43;;;1.67;;
46561;SDS011;32289;42.688;23.330;2022-11-20T17:24:06;3.38;;;1.50;;
46561;SDS011;32289;42.688;23.330;2022-11-20T17:27:48;8.40;;;3.95;;
46561;SDS011;32289;42.688;23.330;2022-11-20T17:31:30;2.70;;;1.30;;
46561;SDS011;32289;42.688;23.330;2022-11-20T17:35:12;5.97;;;1.92;;
46561;SDS011;32289;42.688;23.330;2022-11-20T17:38:53;5.32;;;2.55;;
46561;SDS011;32289;42.688;23.330;2022-11-20T17:42:34;10.30;;;4.20;;
46561;SDS011;32289;42.688;23.330;2022-11-20T17:46:16;4.80;;;1.63;;
46561;SDS011;32289;42.688;23.330;2022-11-20T17:49:59;5.30;;;1.15;;
46561;SDS011;32289;42.688;23.330;2022-11-20T17:53:41;5.97;;;2.75;;
46561;SDS011;32289;42.688;23.330;2022-11-20T17:57:23;2.20;;;1.08;;
46561;SDS011;32289;42.688;23.330;2022-11-20T18:01:22;1.90;;;1.17;;
46561;SDS011;32289;42.688;23.330;2022-11-20T18:05:03;2.75;;;0.90;;
46561;SDS011;32289;42.688;23.330;2022-11-20T18:08:44;6.63;;;2.20;;
46561;SDS011;32289;42.688;23.330;2022-11-20T18:12:26;6.40;;;2.67;;
46561;SDS011;32289;42.688;23.330;2022-11-20T18:16:06;2.38;;;1.35;;
46561;SDS011;32289;42.688;23.330;2022-11-20T18:19:47;4.95;;;2.13;;
46561;SDS011;32289;42.688;23.330;2022-11-20T18:23:29;3.40;;;1.60;;
46561;SDS011;32289;42.688;23.330;2022-11-20T18:27:17;4.47;;;1.30;;
46561;SDS011;32289;42.688;23.330;2022-11-20T18:31:00;3.53;;;1.45;;
46561;SDS011;32289;42.688;23.330;2022-11-20T18:34:45;4.38;;;2.25;;
46561;SDS011;32289;42.688;23.330;2022-11-20T18:38:25;5.80;;;2.85;;
46561;SDS011;32289;42.688;23.330;2022-11-20T18:42:09;3.90;;;1.08;;
46561;SDS011;32289;42.688;23.330;2022-11-20T18:46:10;2.00;;;0.80;;
46561;SDS011;32289;42.688;23.330;2022-11-20T18:49:51;2.80;;;1.05;;
46561;SDS011;32289;42.688;23.330;2022-11-20T18:53:33;1.58;;;0.80;;
46561;SDS011;32289;42.688;23.330;2022-11-20T18:57:16;2.10;;;1.00;;
46561;SDS011;32289;42.688;23.330;2022-11-20T19:01:04;1.60;;;0.63;;
46561;SDS011;32289;42.688;23.330;2022-11-20T19:04:45;2.08;;;0.52;;
46561;SDS011;32289;42.688;23.330;2022-11-20T19:08:26;1.02;;;0.55;;
46561;SDS011;32289;42.688;23.330;2022-11-20T19:12:08;2.28;;;0.50;;
46561;SDS011;32289;42.688;23.330;2022-11-20T19:15:49;2.95;;;0.88;;
46561;SDS011;32289;42.688;23.330;2022-11-20T19:19:31;2.42;;;1.10;;
46561;SDS011;32289;42.688;23.330;2022-11-20T19:23:12;0.73;;;0.32;;
46561;SDS011;32289;42.688;23.330;2022-11-20T19:26:53;0.93;;;0.40;;
46561;SDS011;32289;42.688;23.330;2022-11-20T19:30:36;1.27;;;0.50;;
46561;SDS011;32289;42.688;23.330;2022-11-20T19:34:16;1.55;;;0.73;;
46561;SDS011;32289;42.688;23.330;2022-11-20T19:37:57;1.60;;;0.73;;
46561;SDS011;32289;42.688;23.330;2022-11-20T19:41:39;1.10;;;0.55;;
46561;SDS011;32289;42.688;23.330;2022-11-20T19:45:20;0.50;;;0.32;;
46561;SDS011;32289;42.688;23.330;2022-11-20T19:49:01;4.03;;;0.65;;
46561;SDS011;32289;42.688;23.330;2022-11-20T19:52:42;1.45;;;0.70;;
46561;SDS011;32289;42.688;23.330;2022-11-20T19:56:23;0.82;;;0.60;;
46561;SDS011;32289;42.688;23.330;2022-11-20T20:00:08;2.50;;;1.00;;
46561;SDS011;32289;42.688;23.330;2022-11-20T20:03:49;1.80;;;0.77;;
46561;SDS011;32289;42.688;23.330;2022-11-20T20:07:30;1.38;;;0.73;;
46561;SDS011;32289;42.688;23.330;2022-11-20T20:14:56;1.25;;;0.80;;
46561;SDS011;32289;42.688;23.330;2022-11-20T20:18:37;1.33;;;0.70;;
46561;SDS011;32289;42.688;23.330;2022-11-20T20:22:18;1.80;;;0.85;;
46561;SDS011;32289;42.688;23.330;2022-11-20T20:25:59;1.10;;;0.70;;
46561;SDS011;32289;42.688;23.330;2022-11-20T20:29:39;2.13;;;0.80;;
46561;SDS011;32289;42.688;23.330;2022-11-20T20:33:20;3.67;;;1.73;;
46561;SDS011;32289;42.688;23.330;2022-11-20T20:37:02;1.58;;;0.70;;
46561;SDS011;32289;42.688;23.330;2022-11-20T20:40:45;0.90;;;0.35;;
46561;SDS011;32289;42.688;23.330;2022-11-20T20:44:27;1.90;;;0.70;;
46561;SDS011;32289;42.688;23.330;2022-11-20T20:48:27;1.70;;;0.97;;
46561;SDS011;32289;42.688;23.330;2022-11-20T20:52:09;1.02;;;0.60;;
46561;SDS011;32289;42.688;23.330;2022-11-20T21:00:06;1.25;;;0.60;;
46561;SDS011;32289;42.688;23.330;2022-11-20T21:03:50;0.63;;;0.47;;
46561;SDS011;32289;42.688;23.330;2022-11-20T21:07:31;3.35;;;1.02;;
46561;SDS011;32289;42.688;23.330;2022-11-20T21:11:12;1.13;;;0.73;;
46561;SDS011;32289;42.688;23.330;2022-11-20T21:14:54;5.50;;;1.23;;
46561;SDS011;32289;42.688;23.330;2022-11-20T21:18:35;2.70;;;1.10;;
46561;SDS011;32289;42.688;23.330;2022-11-20T21:22:16;2.63;;;1.15;;
46561;SDS011;32289;42.688;23.330;2022-11-20T21:25:59;3.60;;;1.30;;
46561;SDS011;32289;42.688;23.330;2022-11-20T21:29:41;2.17;;;1.17;;
46561;SDS011;32289;42.688;23.330;2022-11-20T21:33:22;1.80;;;1.08;;
46561;SDS011;32289;42.688;23.330;2022-11-20T21:37:02;1.38;;;0.93;;
46561;SDS011;32289;42.688;23.330;2022-11-20T21:40:43;11.40;;;1.30;;
46561;SDS011;32289;42.688;23.330;2022-11-20T21:44:24;1.23;;;0.68;;
46561;SDS011;32289;42.688;23.330;2022-11-20T21:48:04;2.30;;;1.20;;
46561;SDS011;32289;42.688;23.330;2022-11-20T21:51:45;4.47;;;1.50;;
46561;SDS011;32289;42.688;23.330;2022-11-20T21:55:26;2.67;;;1.10;;
46561;SDS011;32289;42.688;23.330;2022-11-20T21:59:09;1.35;;;0.90;;
46561;SDS011;32289;42.688;23.330;2022-11-20T22:02:53;7.72;;;1.15;;
46561;SDS011;32289;42.688;23.330;2022-11-20T22:06:34;3.58;;;1.75;;
46561;SDS011;32289;42.688;23.330;2022-11-20T22:10:15;4.30;;;1.80;;
46561;SDS011;32289;42.688;23.330;2022-11-20T22:13:55;4.53;;;2.78;;
46561;SDS011;32289;42.688;23.330;2022-11-20T22:17:55;10.50;;;2.25;;
46561;SDS011;32289;42.688;23.330;2022-11-20T22:21:53;3.42;;;1.95;;
46561;SDS011;32289;42.688;23.330;2022-11-20T22:25:34;4.35;;;2.05;;
46561;SDS011;32289;42.688;23.330;2022-11-20T22:29:18;3.33;;;1.80;;
46561;SDS011;32289;42.688;23.330;2022-11-20T22:33:00;4.05;;;1.88;;
46561;SDS011;32289;42.688;23.330;2022-11-20T22:36:40;3.13;;;1.55;;
46561;SDS011;32289;42.688;23.330;2022-11-20T22:40:21;2.70;;;1.50;;
46561;SDS011;32289;42.688;23.330;2022-11-20T22:44:05;7.35;;;2.13;;
46561;SDS011;32289;42.688;23.330;2022-11-20T22:47:46;4.10;;;2.65;;
46561;SDS011;32289;42.688;23.330;2022-11-20T22:51:31;2.92;;;2.08;;
46561;SDS011;32289;42.688;23.330;2022-11-20T22:55:14;9.00;;;2.35;;
46561;SDS011;32289;42.688;23.330;2022-11-20T22:58:54;3.97;;;2.05;;
46561;SDS011;32289;42.688;23.330;2022-11-20T23:02:35;8.65;;;2.58;;
46561;SDS011;32289;42.688;23.330;2022-11-20T23:06:16;7.20;;;2.58;;
46561;SDS011;32289;42.688;23.330;2022-11-20T23:09:58;4.55;;;2.85;;
46561;SDS011;32289;42.688;23.330;2022-11-20T23:13:39;3.38;;;1.50;;
46561;SDS011;32289;42.688;23.330;2022-11-20T23:17:21;4.07;;;1.80;;
46561;SDS011;32289;42.688;23.330;2022-11-20T23:21:05;5.13;;;2.25;;
46561;SDS011;32289;42.688;23.330;2022-11-20T23:24:47;3.97;;;1.80;;
46561;SDS011;32289;42.688;23.330;2022-11-20T23:28:28;5.50;;;2.25;;
46561;SDS011;32289;42.688;23.330;2022-11-20T23:32:09;4.03;;;2.15;;
46561;SDS011;32289;42.688;23.330;2022-11-20T23:35:50;4.90;;;2.00;;
46561;SDS011;32289;42.688;23.330;2022-11-20T23:39:31;7.07;;;2.53;;
46561;SDS011;32289;42.688;23.330;2022-11-20T23:43:11;6.45;;;2.40;;
46561;SDS011;32289;42.688;23.330;2022-11-20T23:46:55;2.72;;;1.63;;
46561;SDS011;32289;42.688;23.330;2022-11-20T23:50:36;3.72;;;2.10;;
46561;SDS011;32289;42.688;23.330;2022-11-20T23:54:17;6.53;;;2.28;;
46561;SDS011;32289;42.688;23.330;2022-11-20T23:57:57;4.72;;;2.58;;
